createdAt,value
2019-01-23T00:01:02.100Z,733.9
2019-01-23T00:02:04.536Z,734.3
2019-01-23T00:03:06.968Z,733.9
2019-01-23T00:04:09.395Z,734.2
2019-01-23T00:05:11.843Z,734.6
2019-01-23T00:06:13.984Z,734.5
2019-01-23T00:07:16.132Z,734.4
2019-01-23T00:08:18.572Z,734.4
2019-01-23T00:09:20.714Z,734
2019-01-23T00:10:23.142Z,734.6
2019-01-23T00:11:25.035Z,734.6
2019-01-23T00:12:27.158Z,734.7
2019-01-23T00:13:29.582Z,734.7
2019-01-23T00:14:31.724Z,734.7
2019-01-23T00:15:34.160Z,734.8
2019-01-23T00:16:36.584Z,735
2019-01-23T00:17:39.023Z,735.2
2019-01-23T00:18:41.445Z,735.1
2019-01-23T00:19:43.866Z,735.4
2019-01-23T00:20:46.291Z,735.7
2019-01-23T00:21:48.739Z,735.1
2019-01-23T00:22:51.162Z,735.5
2019-01-23T00:23:53.322Z,735.6
2019-01-23T00:24:55.744Z,735.6
2019-01-23T00:25:58.165Z,735.9
2019-01-23T00:27:00.610Z,735.7
2019-01-23T00:28:03.048Z,736.2
2019-01-23T00:29:05.486Z,736.1
2019-01-23T00:30:07.644Z,736.3
2019-01-23T00:31:10.076Z,736.3
2019-01-23T00:32:12.502Z,736.4
2019-01-23T00:33:14.925Z,736.4
2019-01-23T00:34:17.344Z,736.5
2019-01-23T00:35:19.214Z,736.3
2019-01-23T00:36:21.376Z,737.1
2019-01-23T00:37:24.422Z,737.1
2019-01-23T00:38:26.584Z,737.2
2019-01-23T00:39:28.743Z,737.5
2019-01-23T00:40:30.605Z,736.9
2019-01-23T00:41:33.031Z,737.2
2019-01-23T00:42:35.473Z,737.2
2019-01-23T00:43:37.907Z,737
2019-01-23T00:44:40.333Z,737.3
2019-01-23T00:45:42.480Z,737.4
2019-01-23T00:46:44.927Z,737.1
2019-01-23T00:47:47.093Z,736.8
2019-01-23T00:48:49.523Z,736.6
2019-01-23T00:49:51.955Z,736.8
2019-01-23T00:50:54.384Z,736.7
2019-01-23T00:51:56.827Z,737.3
2019-01-23T00:52:58.968Z,737.5
2019-01-23T00:54:01.144Z,737.8
2019-01-23T00:55:03.283Z,738
2019-01-23T00:56:05.714Z,737.7
2019-01-23T00:57:07.587Z,738
2019-01-23T00:58:09.751Z,738.6
2019-01-23T00:59:12.181Z,738.1
2019-01-23T01:00:14.606Z,738.6
2019-01-23T01:01:17.031Z,738.4
2019-01-23T01:02:19.456Z,738.6
2019-01-23T01:03:21.584Z,738.3
2019-01-23T01:04:23.467Z,737.9
2019-01-23T01:05:25.905Z,738.4
2019-01-23T01:06:28.062Z,738.5
2019-01-23T01:07:30.240Z,738.8
2019-01-23T01:08:32.674Z,739
2019-01-23T01:09:35.108Z,738.8
2019-01-23T01:10:37.534Z,739
2019-01-23T01:11:39.684Z,739.2
2019-01-23T01:12:42.115Z,738.9
2019-01-23T01:13:44.266Z,739.1
2019-01-23T01:14:46.704Z,739.1
2019-01-23T01:15:48.838Z,739.6
2019-01-23T01:16:50.450Z,739.6
2019-01-23T01:17:52.895Z,740.2
2019-01-23T01:18:54.773Z,740
2019-01-23T01:19:56.929Z,739.8
2019-01-23T01:20:59.069Z,739.8
2019-01-23T01:22:01.515Z,739.4
2019-01-23T01:23:03.395Z,740.2
2019-01-23T01:24:05.822Z,740.2
2019-01-23T01:25:08.246Z,740.2
2019-01-23T01:26:10.399Z,740.2
2019-01-23T01:27:12.822Z,740.1
2019-01-23T01:28:14.984Z,740.4
2019-01-23T01:29:17.405Z,740.4
2019-01-23T01:30:19.840Z,740.9
2019-01-23T01:31:22.275Z,740.8
2019-01-23T01:32:24.415Z,740.9
2019-01-23T01:33:26.312Z,741.3
2019-01-23T01:34:28.736Z,740.9
2019-01-23T01:35:31.152Z,741.5
2019-01-23T01:36:33.324Z,741.3
2019-01-23T01:37:35.748Z,741.7
2019-01-23T01:38:37.906Z,741.6
2019-01-23T01:39:39.778Z,741.7
2019-01-23T01:40:42.202Z,742
2019-01-23T01:41:44.386Z,741.8
2019-01-23T01:42:46.559Z,741.7
2019-01-23T01:43:48.723Z,742
2019-01-23T01:44:50.873Z,742
2019-01-23T01:45:53.300Z,741.7
2019-01-23T01:46:55.724Z,741.6
2019-01-23T01:47:58.146Z,741.9
2019-01-23T01:49:00.314Z,742.4
2019-01-23T01:50:02.469Z,742.7
2019-01-23T01:51:04.630Z,742.9
2019-01-23T01:52:07.062Z,743.4
2019-01-23T01:53:09.498Z,742.9
2019-01-23T01:54:11.934Z,743.6
2019-01-23T01:55:14.373Z,743.4
2019-01-23T01:56:16.796Z,743.9
2019-01-23T01:57:18.970Z,743.9
2019-01-23T01:58:21.124Z,744.3
2019-01-23T01:59:23.005Z,744.7
2019-01-23T02:00:25.433Z,744.2
2019-01-23T02:01:27.883Z,745
2019-01-23T02:02:29.767Z,744.9
2019-01-23T02:03:32.339Z,744.6
2019-01-23T02:04:34.776Z,745.3
2019-01-23T02:05:37.204Z,745.6
2019-01-23T02:06:39.624Z,745.8
2019-01-23T02:07:42.043Z,745.7
2019-01-23T02:08:44.476Z,745.8
2019-01-23T02:09:47.293Z,746.1
2019-01-23T02:10:49.714Z,746.3
2019-01-23T02:11:51.857Z,746.2
2019-01-23T02:12:54.004Z,746.2
2019-01-23T02:13:56.446Z,746.6
2019-01-23T02:14:58.576Z,746.7
2019-01-23T02:16:01.054Z,746.9
2019-01-23T02:17:17.616Z,746.8
2019-01-23T02:18:20.031Z,747.2
2019-01-23T02:19:22.184Z,747.6
2019-01-23T02:20:24.347Z,747.5
2019-01-23T02:21:26.759Z,747.7
2019-01-23T02:22:28.911Z,747.7
2019-01-23T02:23:31.337Z,748.1
2019-01-23T02:24:33.474Z,748.1
2019-01-23T02:25:35.623Z,748.1
2019-01-23T02:26:37.784Z,748.4
2019-01-23T02:27:40.205Z,748.5
2019-01-23T02:28:42.635Z,748.5
2019-01-23T02:29:45.067Z,748.9
2019-01-23T02:30:47.227Z,748.7
2019-01-23T02:31:49.371Z,748.9
2019-01-23T02:32:51.790Z,748.9
2019-01-23T02:33:54.235Z,748.9
2019-01-23T02:34:56.383Z,749
2019-01-23T02:35:58.805Z,749
2019-01-23T02:37:01.236Z,749.5
2019-01-23T02:38:03.100Z,749.7
2019-01-23T02:39:05.254Z,750
2019-01-23T02:40:07.694Z,750
2019-01-23T02:41:10.110Z,749.9
2019-01-23T02:42:11.991Z,750.2
2019-01-23T02:43:14.418Z,750.1
2019-01-23T02:44:16.830Z,750.4
2019-01-23T02:45:18.726Z,750.7
2019-01-23T02:46:20.873Z,750.5
2019-01-23T02:47:23.304Z,751
2019-01-23T02:48:25.724Z,750.8
2019-01-23T02:49:28.153Z,750.8
2019-01-23T02:50:30.583Z,751.1
2019-01-23T02:51:33.014Z,751.3
2019-01-23T02:52:35.459Z,751.5
2019-01-23T02:53:37.325Z,751.6
2019-01-23T02:54:39.483Z,751.9
2019-01-23T02:55:41.905Z,752.2
2019-01-23T02:56:44.330Z,752.5
2019-01-23T02:57:46.744Z,752.4
2019-01-23T02:58:49.180Z,752.5
2019-01-23T02:59:51.611Z,752.7
2019-01-23T03:00:54.016Z,752.9
2019-01-23T03:01:56.182Z,753
2019-01-23T03:02:58.606Z,753
2019-01-23T03:04:00.756Z,753.3
2019-01-23T03:05:17.845Z,753.5
2019-01-23T03:06:20.271Z,753.3
2019-01-23T03:07:22.702Z,753.7
2019-01-23T03:08:25.127Z,753.4
2019-01-23T03:09:27.558Z,753.7
2019-01-23T03:10:30.001Z,753.8
2019-01-23T03:11:32.438Z,754.2
2019-01-23T03:12:34.589Z,754
2019-01-23T03:13:36.753Z,753.9
2019-01-23T03:14:39.187Z,753.9
2019-01-23T03:15:41.601Z,753.9
2019-01-23T03:16:43.754Z,754.2
2019-01-23T03:17:45.890Z,754.5
2019-01-23T03:18:48.314Z,754.4
2019-01-23T03:19:50.209Z,754.2
2019-01-23T03:20:52.365Z,754.4
2019-01-23T03:21:54.521Z,754.7
2019-01-23T03:22:56.684Z,754.6
2019-01-23T03:23:59.105Z,754.5
2019-01-23T03:25:01.666Z,754.5
2019-01-23T03:26:04.100Z,754.6
2019-01-23T03:27:06.524Z,754.4
2019-01-23T03:28:08.955Z,754.3
2019-01-23T03:29:11.383Z,755.2
2019-01-23T03:30:13.544Z,755
2019-01-23T03:31:15.975Z,755.4
2019-01-23T03:32:18.135Z,755.2
2019-01-23T03:33:20.303Z,755.5
2019-01-23T03:34:22.735Z,755.6
2019-01-23T03:35:24.914Z,756.1
2019-01-23T03:36:27.039Z,755.5
2019-01-23T03:37:29.453Z,755.4
2019-01-23T03:38:31.364Z,755.4
2019-01-23T03:39:33.523Z,755.7
2019-01-23T03:40:35.967Z,755.5
2019-01-23T03:41:38.124Z,755.4
2019-01-23T03:42:40.555Z,756
2019-01-23T03:43:42.976Z,756
2019-01-23T03:44:45.402Z,756.2
2019-01-23T03:45:47.814Z,756.4
2019-01-23T03:46:50.251Z,756.3
2019-01-23T03:47:52.158Z,756.5
2019-01-23T03:48:54.587Z,756.4
2019-01-23T03:49:56.734Z,756.4
2019-01-23T03:50:58.876Z,756.3
2019-01-23T03:52:01.032Z,756
2019-01-23T03:53:03.454Z,756.1
2019-01-23T03:54:05.895Z,756.1
2019-01-23T03:55:08.324Z,755.8
2019-01-23T03:56:10.535Z,756.2
2019-01-23T03:57:12.680Z,756.2
2019-01-23T03:58:15.103Z,756.3
2019-01-23T03:59:16.984Z,756.3
2019-01-23T04:00:20.465Z,756.1
2019-01-23T04:01:22.892Z,756.5
2019-01-23T04:02:25.322Z,756.2
2019-01-23T04:03:27.751Z,756.5
2019-01-23T04:04:30.175Z,756.5
2019-01-23T04:05:33.152Z,756.2
2019-01-23T04:06:35.568Z,756
2019-01-23T04:07:37.714Z,756.2
2019-01-23T04:08:39.867Z,756.3
2019-01-23T04:09:42.011Z,756.2
2019-01-23T04:10:44.447Z,756.6
2019-01-23T04:11:46.882Z,756.5
2019-01-23T04:12:49.322Z,756.3
2019-01-23T04:13:51.203Z,756.8
2019-01-23T04:14:53.365Z,757.2
2019-01-23T04:15:55.227Z,757.1
2019-01-23T04:16:57.374Z,757.2
2019-01-23T04:17:59.801Z,756.9
2019-01-23T04:19:02.222Z,757.2
2019-01-23T04:20:04.644Z,757.4
2019-01-23T04:21:06.795Z,757.5
2019-01-23T04:22:09.223Z,757.9
2019-01-23T04:23:11.121Z,757.7
2019-01-23T04:24:13.534Z,757.6
2019-01-23T04:25:15.686Z,757.5
2019-01-23T04:26:17.835Z,757.9
2019-01-23T04:27:20.560Z,757.7
2019-01-23T04:28:23.058Z,757.7
2019-01-23T04:29:25.483Z,757.7
2019-01-23T04:30:27.937Z,757.9
2019-01-23T04:31:30.132Z,758.1
2019-01-23T04:32:32.577Z,758.4
2019-01-23T04:33:35.032Z,758.2
2019-01-23T04:34:37.485Z,758.2
2019-01-23T04:35:39.843Z,758.9
2019-01-23T04:36:42.293Z,758.6
2019-01-23T04:37:44.575Z,758.6
2019-01-23T04:38:46.746Z,758.7
2019-01-23T04:39:48.629Z,758.9
2019-01-23T04:40:50.792Z,758.8
2019-01-23T04:41:53.233Z,759.5
2019-01-23T04:42:55.705Z,759.8
2019-01-23T04:43:57.869Z,759.8
2019-01-23T04:45:00.035Z,760.1
2019-01-23T04:46:02.464Z,760.2
2019-01-23T04:47:04.607Z,760.2
2019-01-23T04:48:07.031Z,760.5
2019-01-23T04:49:08.899Z,760.4
2019-01-23T04:50:11.045Z,760.5
2019-01-23T04:51:13.477Z,760.8
2019-01-23T04:52:15.605Z,760.8
2019-01-23T04:53:17.774Z,760.7
2019-01-23T04:54:20.203Z,761
2019-01-23T04:55:22.633Z,761.2
2019-01-23T04:56:24.543Z,760.7
2019-01-23T04:57:27.007Z,761.2
2019-01-23T04:58:29.433Z,760.9
2019-01-23T04:59:31.851Z,761.2
2019-01-23T05:00:33.973Z,761.3
2019-01-23T05:01:36.385Z,761.3
2019-01-23T05:02:38.811Z,761.7
2019-01-23T05:03:41.265Z,761.7
2019-01-23T05:04:43.693Z,761.9
2019-01-23T05:05:46.116Z,761.9
2019-01-23T05:06:48.540Z,761.9
2019-01-23T05:07:50.986Z,762
2019-01-23T05:08:54.943Z,761.9
2019-01-23T05:09:57.493Z,762.2
2019-01-23T05:10:59.658Z,762
2019-01-23T05:12:02.106Z,762.6
2019-01-23T05:13:04.532Z,762.8
2019-01-23T05:14:06.685Z,762.5
2019-01-23T05:15:08.828Z,763.1
2019-01-23T05:16:10.992Z,762.9
2019-01-23T05:17:13.409Z,762.9
2019-01-23T05:18:15.834Z,762.6
2019-01-23T05:19:18.267Z,763.3
2019-01-23T05:20:20.693Z,763
2019-01-23T05:21:23.113Z,763
2019-01-23T05:22:24.988Z,763.1
2019-01-23T05:23:27.410Z,762.8
2019-01-23T05:24:29.579Z,763.2
2019-01-23T05:25:31.712Z,763.3
2019-01-23T05:26:35.695Z,763.5
2019-01-23T05:27:38.123Z,763.7
2019-01-23T05:28:40.258Z,763.7
2019-01-23T05:29:42.415Z,764.1
2019-01-23T05:30:44.853Z,763.8
2019-01-23T05:31:47.019Z,763.9
2019-01-23T05:32:49.163Z,764.1
2019-01-23T05:33:51.581Z,764.2
2019-01-23T05:34:53.726Z,764
2019-01-23T05:35:56.156Z,763.9
2019-01-23T05:36:57.762Z,764.1
2019-01-23T05:38:00.183Z,763.7
2019-01-23T05:39:02.610Z,764.1
2019-01-23T05:40:05.029Z,764
2019-01-23T05:41:07.173Z,764.2
2019-01-23T05:42:09.595Z,764.3
2019-01-23T05:43:12.011Z,764.4
2019-01-23T05:44:14.434Z,764.4
2019-01-23T05:45:16.596Z,764.6
2019-01-23T05:46:19.025Z,764.3
2019-01-23T05:47:21.176Z,764.5
2019-01-23T05:48:23.602Z,764.8
2019-01-23T05:49:26.033Z,764.5
2019-01-23T05:50:27.936Z,764.6
2019-01-23T05:51:30.094Z,764.9
2019-01-23T05:52:32.264Z,764.8
2019-01-23T05:53:34.685Z,765
2019-01-23T05:54:37.120Z,764.8
2019-01-23T05:55:39.552Z,764.9
2019-01-23T05:56:41.977Z,765
2019-01-23T05:57:44.390Z,765
2019-01-23T05:58:46.574Z,765.3
2019-01-23T05:59:48.784Z,765.7
2019-01-23T06:00:50.952Z,765.4
2019-01-23T06:01:53.120Z,765.4
2019-01-23T06:02:55.561Z,765.6
2019-01-23T06:03:57.402Z,765.5
2019-01-23T06:04:59.839Z,765.7
2019-01-23T06:06:02.002Z,765.6
2019-01-23T06:07:04.432Z,765.2
2019-01-23T06:08:06.874Z,765
2019-01-23T06:09:09.026Z,765.4
2019-01-23T06:10:11.455Z,765.3
2019-01-23T06:11:13.878Z,765.4
2019-01-23T06:12:16.357Z,765.2
2019-01-23T06:13:18.799Z,765
2019-01-23T06:14:20.936Z,765.4
2019-01-23T06:15:22.850Z,765.6
2019-01-23T06:16:24.718Z,765.4
2019-01-23T06:17:26.614Z,765.6
2019-01-23T06:18:29.045Z,765.3
2019-01-23T06:19:31.568Z,765.8
2019-01-23T06:20:34.030Z,765.8
2019-01-23T06:21:36.454Z,765.8
2019-01-23T06:22:38.876Z,765.3
2019-01-23T06:23:41.304Z,765.8
2019-01-23T06:24:43.726Z,765.7
2019-01-23T06:25:46.143Z,765.8
2019-01-23T06:26:48.304Z,765.5
2019-01-23T06:27:50.742Z,765.2
2019-01-23T06:28:52.896Z,765.4
2019-01-23T06:29:55.065Z,765.4
2019-01-23T06:30:57.203Z,765.3
2019-01-23T06:31:59.364Z,765.4
2019-01-23T06:33:01.552Z,765.6
2019-01-23T06:34:04.002Z,765.6
2019-01-23T06:35:05.864Z,765.9
2019-01-23T06:36:08.027Z,766.1
2019-01-23T06:37:10.198Z,765.8
2019-01-23T06:38:12.635Z,765.9
2019-01-23T06:39:14.785Z,766
2019-01-23T06:40:17.212Z,765.9
2019-01-23T06:41:19.344Z,766.1
2019-01-23T06:42:21.773Z,765.9
2019-01-23T06:43:24.213Z,765.8
2019-01-23T06:44:26.068Z,765.9
2019-01-23T06:45:28.232Z,766.1
2019-01-23T06:46:30.126Z,766.1
2019-01-23T06:47:32.271Z,766.1
2019-01-23T06:48:34.436Z,766
2019-01-23T06:49:36.590Z,766.3
2019-01-23T06:50:39.034Z,766.6
2019-01-23T06:51:41.192Z,766.4
2019-01-23T06:52:43.624Z,766.7
2019-01-23T06:53:45.514Z,766.6
2019-01-23T06:54:47.708Z,766.4
2019-01-23T06:55:50.146Z,766.9
2019-01-23T06:56:52.569Z,766.4
2019-01-23T06:57:55.005Z,767.1
2019-01-23T06:58:57.179Z,766.7
2019-01-23T06:59:59.296Z,767.4
2019-01-23T07:01:01.736Z,767.8
2019-01-23T07:02:04.164Z,767.1
2019-01-23T07:03:06.596Z,767.8
2019-01-23T07:04:08.769Z,767.6
2019-01-23T07:05:11.188Z,767.5
2019-01-23T07:06:13.059Z,767.2
2019-01-23T07:07:15.220Z,767.6
2019-01-23T07:08:17.389Z,767.8
2019-01-23T07:09:19.573Z,768.1
2019-01-23T07:10:22.007Z,768.3
2019-01-23T07:11:24.434Z,767.5
2019-01-23T07:12:26.582Z,768.2
2019-01-23T07:13:30.262Z,768.2
2019-01-23T07:14:32.407Z,768
2019-01-23T07:15:34.833Z,767.7
2019-01-23T07:16:37.254Z,768.5
2019-01-23T07:17:39.686Z,767.8
2019-01-23T07:18:42.112Z,768.2
2019-01-23T07:19:44.562Z,768.5
2019-01-23T07:20:46.964Z,768.1
2019-01-23T07:21:49.408Z,768
2019-01-23T07:22:51.575Z,768
2019-01-23T07:23:54.002Z,767.8
2019-01-23T07:24:56.166Z,768.4
2019-01-23T07:25:58.618Z,768
2019-01-23T07:27:00.781Z,767.7
2019-01-23T07:28:03.206Z,768.5
2019-01-23T07:29:05.635Z,768
2019-01-23T07:30:08.078Z,768.3
2019-01-23T07:31:09.974Z,768.4
2019-01-23T07:32:12.140Z,768
2019-01-23T07:33:14.274Z,768.7
2019-01-23T07:34:16.716Z,768.2
2019-01-23T07:35:19.144Z,768.3
2019-01-23T07:36:21.368Z,768.6
2019-01-23T07:37:23.780Z,768.7
2019-01-23T07:38:26.228Z,769
2019-01-23T07:39:28.674Z,769
2019-01-23T07:40:30.837Z,769
2019-01-23T07:41:33.288Z,769.1
2019-01-23T07:42:35.718Z,769.6
2019-01-23T07:43:37.608Z,769.6
2019-01-23T07:44:39.760Z,769.2
2019-01-23T07:45:42.193Z,769.6
2019-01-23T07:46:44.370Z,769.4
2019-01-23T07:47:46.787Z,769.7
2019-01-23T07:48:48.932Z,769.5
2019-01-23T07:49:51.086Z,770
2019-01-23T07:50:53.228Z,769.8
2019-01-23T07:51:55.656Z,770
2019-01-23T07:52:58.091Z,770
2019-01-23T07:54:00.241Z,769.8
2019-01-23T07:55:02.118Z,770.3
2019-01-23T07:56:04.264Z,770.2
2019-01-23T07:57:06.704Z,770.6
2019-01-23T07:58:08.846Z,770.4
2019-01-23T07:59:11.936Z,770.9
2019-01-23T08:00:14.374Z,770.7
2019-01-23T08:01:16.804Z,771
2019-01-23T08:02:18.683Z,771.3
2019-01-23T08:03:21.114Z,770.9
2019-01-23T08:04:23.543Z,770.9
2019-01-23T08:05:25.687Z,771.2
2019-01-23T08:06:28.104Z,771
2019-01-23T08:07:30.264Z,771
2019-01-23T08:08:32.688Z,771.1
2019-01-23T08:09:35.209Z,771.1
2019-01-23T08:10:37.354Z,771.1
2019-01-23T08:11:39.794Z,771.4
2019-01-23T08:12:42.225Z,771.3
2019-01-23T08:13:44.511Z,771.2
2019-01-23T08:14:46.935Z,771.2
2019-01-23T08:15:49.377Z,771.3
2019-01-23T08:16:51.540Z,771.1
2019-01-23T08:17:53.966Z,771
2019-01-23T08:18:56.387Z,771.1
2019-01-23T08:19:58.822Z,771.3
2019-01-23T08:21:01.254Z,771.5
2019-01-23T08:22:03.421Z,771.1
2019-01-23T08:23:05.668Z,771.6
2019-01-23T08:24:07.822Z,771.4
2019-01-23T08:25:09.972Z,771.6
2019-01-23T08:26:12.384Z,771.6
2019-01-23T08:27:14.520Z,771.7
2019-01-23T08:28:16.944Z,772
2019-01-23T08:29:18.818Z,771.9
2019-01-23T08:30:21.245Z,771.8
2019-01-23T08:31:23.417Z,772
2019-01-23T08:32:25.857Z,772.1
2019-01-23T08:33:28.012Z,772
2019-01-23T08:34:30.170Z,772.3
2019-01-23T08:35:32.608Z,772.1
2019-01-23T08:36:35.050Z,772.4
2019-01-23T08:37:37.475Z,772.4
2019-01-23T08:38:39.895Z,772.3
2019-01-23T08:39:42.320Z,772.2
2019-01-23T08:40:44.772Z,772.3
2019-01-23T08:41:46.928Z,771.9
2019-01-23T08:42:49.348Z,772.3
2019-01-23T08:43:51.772Z,772.2
2019-01-23T08:44:54.199Z,772.2
2019-01-23T08:45:56.342Z,772.1
2019-01-23T08:46:58.758Z,772.2
2019-01-23T08:48:00.925Z,772.2
2019-01-23T08:49:03.067Z,772.4
2019-01-23T08:50:05.489Z,772.2
2019-01-23T08:51:07.378Z,772.6
2019-01-23T08:52:09.795Z,772.5
2019-01-23T08:53:12.251Z,772.5
2019-01-23T08:54:14.673Z,773
2019-01-23T08:55:16.821Z,772.7
2019-01-23T08:56:18.984Z,773.1
2019-01-23T08:57:21.165Z,773
2019-01-23T08:58:23.592Z,772.9
2019-01-23T08:59:25.481Z,772.9
2019-01-23T09:00:27.904Z,772.9
2019-01-23T09:01:30.359Z,772.8
2019-01-23T09:02:32.774Z,773
2019-01-23T09:03:34.925Z,773
2019-01-23T09:04:37.354Z,773.1
2019-01-23T09:05:39.773Z,773.1
2019-01-23T09:06:42.203Z,773.2
2019-01-23T09:07:44.621Z,773.2
2019-01-23T09:08:46.784Z,773.6
2019-01-23T09:09:49.225Z,773.2
2019-01-23T09:10:51.372Z,773.2
2019-01-23T09:11:53.794Z,773.2
2019-01-23T09:12:55.914Z,773.6
2019-01-23T09:13:58.342Z,773.2
2019-01-23T09:15:00.510Z,773.7
2019-01-23T09:16:02.372Z,773.7
2019-01-23T09:17:04.524Z,773.7
2019-01-23T09:18:08.565Z,773.6
2019-01-23T09:19:10.707Z,773.7
2019-01-23T09:20:12.614Z,773.4
2019-01-23T09:21:14.484Z,773.7
2019-01-23T09:22:16.645Z,774
2019-01-23T09:23:19.092Z,774.1
2019-01-23T09:24:21.235Z,773.7
2019-01-23T09:25:23.665Z,773.5
2019-01-23T09:26:25.801Z,773.9
2019-01-23T09:27:27.957Z,773.8
2019-01-23T09:28:30.115Z,774.4
2019-01-23T09:29:32.276Z,773.9
2019-01-23T09:30:34.693Z,774.4
2019-01-23T09:31:36.855Z,774.2
2019-01-23T09:32:39.277Z,774.1
2019-01-23T09:33:41.705Z,774
2019-01-23T09:34:44.135Z,774.2
2019-01-23T09:35:46.565Z,774.2
2019-01-23T09:36:48.436Z,774.4
2019-01-23T09:37:50.859Z,774.2
2019-01-23T09:38:53.003Z,774.3
2019-01-23T09:39:55.433Z,774.4
2019-01-23T09:40:57.875Z,774.5
2019-01-23T09:41:59.476Z,774.3
2019-01-23T09:43:01.644Z,774.6
2019-01-23T09:44:04.075Z,774.4
2019-01-23T09:45:06.502Z,774.9
2019-01-23T09:46:08.920Z,774.7
2019-01-23T09:47:11.069Z,774.7
2019-01-23T09:48:13.201Z,775
2019-01-23T09:49:15.353Z,774.7
2019-01-23T09:50:17.494Z,774.7
2019-01-23T09:51:19.646Z,774.7
2019-01-23T09:52:22.094Z,774.8
2019-01-23T09:53:24.535Z,774.7
2019-01-23T09:54:26.958Z,775
2019-01-23T09:55:29.381Z,774.7
2019-01-23T09:56:31.799Z,775.4
2019-01-23T09:57:34.218Z,775.5
2019-01-23T09:58:36.653Z,775.5
2019-01-23T09:59:38.229Z,776.3
2019-01-23T10:00:40.367Z,775.7
2019-01-23T10:01:42.523Z,775.8
2019-01-23T10:02:44.955Z,776.2
2019-01-23T10:03:47.382Z,776.4
2019-01-23T10:04:49.823Z,776.6
2019-01-23T10:05:51.972Z,776.5
2019-01-23T10:06:54.419Z,776.7
2019-01-23T10:07:56.703Z,776.5
2019-01-23T10:08:58.846Z,777
2019-01-23T10:10:00.753Z,777.4
2019-01-23T10:11:03.197Z,777
2019-01-23T10:12:05.128Z,776.9
2019-01-23T10:13:07.574Z,777.2
2019-01-23T10:14:09.730Z,777.2
2019-01-23T10:15:12.170Z,777.3
2019-01-23T10:16:14.600Z,777.3
2019-01-23T10:17:16.756Z,777.4
2019-01-23T10:18:19.203Z,777.2
2019-01-23T10:19:21.643Z,777.4
2019-01-23T10:20:24.089Z,777.1
2019-01-23T10:21:26.234Z,777.7
2019-01-23T10:22:28.115Z,777.7
2019-01-23T10:23:30.246Z,777.5
2019-01-23T10:25:37.648Z,778.2
2019-01-23T10:26:39.801Z,777.9
2019-01-23T10:27:41.981Z,778.3
2019-01-23T10:28:44.124Z,778.2
2019-01-23T10:29:46.555Z,778.5
2019-01-23T10:30:48.701Z,778.3
2019-01-23T10:31:50.875Z,778.5
2019-01-23T10:32:53.294Z,779
2019-01-23T10:33:55.438Z,779.1
2019-01-23T10:34:57.347Z,779
2019-01-23T10:35:59.755Z,779.1
2019-01-23T10:37:02.184Z,778.6
2019-01-23T10:38:04.344Z,778.7
2019-01-23T10:39:06.789Z,779
2019-01-23T10:40:09.210Z,779.1
2019-01-23T10:41:11.358Z,779.4
2019-01-23T10:42:13.786Z,779.2
2019-01-23T10:43:16.225Z,779.6
2019-01-23T10:44:18.672Z,779.5
2019-01-23T10:45:21.097Z,780.1
2019-01-23T10:46:23.511Z,779.5
2019-01-23T10:47:25.664Z,779.9
2019-01-23T10:48:27.833Z,779.6
2019-01-23T10:49:29.703Z,779.5
2019-01-23T10:50:31.873Z,779.4
2019-01-23T10:51:34.308Z,779.9
2019-01-23T10:52:36.725Z,779.8
2019-01-23T10:53:38.935Z,779.9
2019-01-23T10:54:41.088Z,779.9
2019-01-23T10:55:43.513Z,780.3
2019-01-23T10:56:45.669Z,780.4
2019-01-23T10:57:47.568Z,780.6
2019-01-23T10:58:49.447Z,780.3
2019-01-23T10:59:51.900Z,780.5
2019-01-23T11:00:54.041Z,780.1
2019-01-23T11:01:56.480Z,780.2
2019-01-23T11:02:58.896Z,780.7
2019-01-23T11:04:00.786Z,780.8
2019-01-23T11:05:03.206Z,780.8
2019-01-23T11:06:05.376Z,780.9
2019-01-23T11:07:07.803Z,781.4
2019-01-23T11:08:09.977Z,781.3
2019-01-23T11:09:12.506Z,781.7
2019-01-23T11:10:14.930Z,781.8
2019-01-23T11:11:17.364Z,781.2
2019-01-23T11:12:19.535Z,782.1
2019-01-23T11:13:21.701Z,781.9
2019-01-23T11:14:23.874Z,781.2
2019-01-23T11:15:26.311Z,781.2
2019-01-23T11:16:28.679Z,781.4
2019-01-23T11:17:31.103Z,782
2019-01-23T11:18:33.526Z,782.1
2019-01-23T11:19:35.952Z,781.9
2019-01-23T11:20:38.400Z,782.2
2019-01-23T11:21:40.826Z,782.6
2019-01-23T11:22:43.270Z,782.4
2019-01-23T11:23:45.697Z,782.7
2019-01-23T11:24:48.138Z,782.8
2019-01-23T11:25:50.577Z,782.5
2019-01-23T11:26:53.016Z,782.8
2019-01-23T11:27:55.189Z,782.6
2019-01-23T11:28:57.351Z,783.3
2019-01-23T11:29:59.812Z,782.5
2019-01-23T11:31:01.961Z,783.1
2019-01-23T11:32:04.401Z,783.1
2019-01-23T11:33:06.564Z,783.3
2019-01-23T11:34:09.016Z,783.3
2019-01-23T11:35:11.457Z,783.1
2019-01-23T11:36:13.891Z,783.9
2019-01-23T11:37:16.335Z,783.8
2019-01-23T11:38:18.793Z,783.5
2019-01-23T11:39:21.245Z,783.7
2019-01-23T11:40:22.848Z,783.7
2019-01-23T11:41:24.752Z,783.7
2019-01-23T11:42:27.194Z,783.3
2019-01-23T11:43:29.081Z,783.6
2019-01-23T11:44:31.515Z,783.7
2019-01-23T11:45:33.953Z,783.6
2019-01-23T11:46:36.387Z,783.8
2019-01-23T11:47:38.814Z,783.6
2019-01-23T11:48:41.249Z,783.8
2019-01-23T11:49:43.691Z,783.7
2019-01-23T11:50:45.821Z,783.7
2019-01-23T11:51:48.252Z,783.8
2019-01-23T11:52:50.420Z,784.1
2019-01-23T11:53:52.848Z,783.9
2019-01-23T11:54:55.015Z,784.1
2019-01-23T11:55:57.461Z,784
2019-01-23T11:56:59.079Z,783.8
2019-01-23T11:58:01.231Z,784.1
2019-01-23T11:59:03.798Z,783.8
2019-01-23T12:00:06.419Z,784.2
2019-01-23T12:01:08.628Z,784.1
2019-01-23T12:02:11.078Z,783.9
2019-01-23T12:03:13.584Z,784.4
2019-01-23T12:04:15.752Z,784.2
2019-01-23T12:05:18.134Z,784.2
2019-01-23T12:06:20.583Z,783.9
2019-01-23T12:07:23.035Z,784.1
2019-01-23T12:08:25.472Z,783.8
2019-01-23T12:09:27.642Z,783.7
2019-01-23T12:10:29.787Z,783.7
2019-01-23T12:11:31.681Z,783.6
2019-01-23T12:12:33.817Z,783.4
2019-01-23T12:13:36.017Z,783.3
2019-01-23T12:14:38.313Z,783.1
2019-01-23T12:15:43.130Z,783.8
2019-01-23T12:16:45.647Z,783.5
2019-01-23T12:17:48.091Z,783.5
2019-01-23T12:18:50.278Z,783.3
2019-01-23T12:19:52.447Z,783.3
2019-01-23T12:20:54.600Z,783.1
2019-01-23T12:21:56.771Z,783.5
2019-01-23T12:22:59.214Z,783.1
2019-01-23T12:24:01.397Z,783.6
2019-01-23T12:25:03.903Z,783.6
2019-01-23T12:26:06.339Z,783.5
2019-01-23T12:27:08.872Z,783.9
2019-01-23T12:28:11.027Z,783.8
2019-01-23T12:29:13.305Z,783.7
2019-01-23T12:30:15.654Z,784
2019-01-23T12:31:18.276Z,783.8
2019-01-23T12:32:20.206Z,783.8
2019-01-23T12:33:22.433Z,783.7
2019-01-23T12:34:24.631Z,783.7
2019-01-23T12:35:26.551Z,783.4
2019-01-23T12:36:28.725Z,783.9
2019-01-23T12:37:31.201Z,783.8
2019-01-23T12:38:33.100Z,784.1
2019-01-23T12:39:35.264Z,784.2
2019-01-23T12:40:37.169Z,784.3
2019-01-23T12:41:39.367Z,784.7
2019-01-23T12:42:41.850Z,784.3
2019-01-23T12:43:44.331Z,784.4
2019-01-23T12:44:47.071Z,784.5
2019-01-23T12:45:49.663Z,784.7
2019-01-23T12:46:52.297Z,784.6
2019-01-23T12:47:54.541Z,785
2019-01-23T12:48:57.045Z,784.9
2019-01-23T12:49:59.204Z,784.7
2019-01-23T12:51:01.659Z,785.1
2019-01-23T12:52:03.902Z,785.3
2019-01-23T12:53:06.343Z,785.5
2019-01-23T12:54:08.858Z,785.5
2019-01-23T12:55:11.411Z,785.5
2019-01-23T12:56:13.342Z,785.5
2019-01-23T12:57:16.022Z,785.3
2019-01-23T12:58:18.708Z,785.6
2019-01-23T12:59:21.138Z,785.6
2019-01-23T13:00:23.640Z,785.6
2019-01-23T13:01:26.341Z,785.5
2019-01-23T13:02:28.799Z,786
2019-01-23T13:03:31.262Z,786
2019-01-23T13:04:33.700Z,785.4
2019-01-23T13:05:36.169Z,785.5
2019-01-23T13:06:38.343Z,786
2019-01-23T13:07:40.975Z,786
2019-01-23T13:08:43.495Z,785.9
2019-01-23T13:09:46.137Z,785.6
2019-01-23T13:10:48.649Z,785.3
2019-01-23T13:11:51.074Z,785.4
2019-01-23T13:12:53.543Z,785.8
2019-01-23T13:13:56.014Z,785.6
2019-01-23T13:14:58.622Z,785.2
2019-01-23T13:16:01.193Z,785.3
2019-01-23T13:17:03.517Z,784.8
2019-01-23T13:18:05.739Z,784.8
2019-01-23T13:19:08.237Z,784.9
2019-01-23T13:20:10.672Z,785
2019-01-23T13:21:13.201Z,784.2
2019-01-23T13:22:15.366Z,784.6
2019-01-23T13:24:22.822Z,784.7
2019-01-23T13:25:25.124Z,784.6
2019-01-23T13:26:27.039Z,784.2
2019-01-23T13:27:29.626Z,784.7
2019-01-23T13:28:32.178Z,784.6
2019-01-23T13:29:34.649Z,784.5
2019-01-23T13:30:36.815Z,784.5